TTPP/POS METAR and TAF weather

Enter ICAO airport designator
Station Type Date Time Source
TTPP METAR 2022/05/23 13:22 UTC NOAA

TTPP 231322Z 07004KT 9999 VCSH FEW012CB SCT016 25/23 Q1016 NOSIG RMK CB-NE SE VCSH NE SE NW


Station Type Date Time Source
TTPP Decoded METAR 2022/05/23 13:22 UTC NOAA

Piarco International Airport, Trinidad, Trinidad and Tobago (TTPP) 10-37N 061-21W 15M
May 23, 2022 - 09:22 AM EDT / 2022.05.23 1322 UTC
Wind: from the ENE (070 degrees) at 5 MPH (4 KT):0
Visibility: greater than 7 mile(s):0
Sky conditions: partly cloudy
Weather: showers in the vicinity; Cumulonimbus clouds observed
Temperature: 77 F (25 C)
Dew Point: 73 F (23 C)
Relative Humidity: 88%
Pressure (altimeter): 30.00 in. Hg (1016 hPa)
ob: TTPP 231322Z 07004KT 9999 VCSH FEW012CB SCT016 25/23 Q1016 NOSIG RMK CB-NE SE VCSH NE SE NW
cycle: 13

Station Type Date Time Source
TTPP TAF 2022/05/23 12:28 UTC NOAA

TAF TTPP 231000Z 2312/2412 13012KT 6000 SCT020 PROB30
TEMPO 2312/2318 3000 SHRA FEW012CB BKN016
BECMG 2323/2401 10005KT FEW016

Example: see airport list